sensor_id;sensor_type;location;lat;lon;timestamp;pressure;altitude;pressure_sealevel;temperature;humidity
3524;BME280;1776;53.330;11.498;2023-04-06T00:00:38;24184.81;;;-147.39;55.54
3524;BME280;1776;53.330;11.498;2023-04-06T00:03:04;24219.38;;;-147.39;55.37
3524;BME280;1776;53.330;11.498;2023-04-06T00:05:29;24241.75;;;-147.39;55.57
3524;BME280;1776;53.330;11.498;2023-04-06T00:07:59;24186.84;;;-147.39;55.56
3524;BME280;1776;53.330;11.498;2023-04-06T00:10:25;24231.56;;;-147.39;55.28
3524;BME280;1776;53.330;11.498;2023-04-06T00:12:51;24249.88;;;-147.39;55.42
3524;BME280;1776;53.330;11.498;2023-04-06T00:15:16;24233.59;;;-147.39;55.48
3524;BME280;1776;53.330;11.498;2023-04-06T00:17:41;24203.09;;;-147.39;55.67
3524;BME280;1776;53.330;11.498;2023-04-06T00:20:07;24140.06;;;-147.39;55.36
3524;BME280;1776;53.330;11.498;2023-04-06T00:22:33;24164.47;;;-147.39;55.43
3524;BME280;1776;53.330;11.498;2023-04-06T00:24:58;24166.50;;;-147.39;55.90
3524;BME280;1776;53.330;11.498;2023-04-06T00:27:24;24170.56;;;-147.39;55.97
3524;BME280;1776;53.330;11.498;2023-04-06T00:29:49;24133.97;;;-147.39;55.66
3524;BME280;1776;53.330;11.498;2023-04-06T00:32:14;24192.94;;;-147.39;55.91
3524;BME280;1776;53.330;11.498;2023-04-06T00:34:40;24166.50;;;-147.39;55.90
3524;BME280;1776;53.330;11.498;2023-04-06T00:37:05;24131.94;;;-147.39;55.97
3524;BME280;1776;53.330;11.498;2023-04-06T00:39:30;24160.41;;;-147.39;56.29
3524;BME280;1776;53.330;11.498;2023-04-06T00:41:56;24129.91;;;-147.39;56.61
3524;BME280;1776;53.330;11.498;2023-04-06T00:44:22;24186.84;;;-147.39;56.58
3524;BME280;1776;53.330;11.498;2023-04-06T00:46:47;24166.50;;;-147.39;56.85
3524;BME280;1776;53.330;11.498;2023-04-06T00:49:12;24087.22;;;-147.39;56.88
3524;BME280;1776;53.330;11.498;2023-04-06T00:51:37;24140.06;;;-147.39;56.69
3524;BME280;1776;53.330;11.498;2023-04-06T00:54:03;24158.38;;;-147.39;56.79
3524;BME280;1776;53.330;11.498;2023-04-06T00:56:28;24152.28;;;-147.39;56.52
3524;BME280;1776;53.330;11.498;2023-04-06T00:58:54;24113.63;;;-147.39;56.37
3524;BME280;1776;53.330;11.498;2023-04-06T01:01:19;24133.97;;;-147.39;56.27
3524;BME280;1776;53.330;11.498;2023-04-06T01:03:45;24103.47;;;-147.39;56.65
3524;BME280;1776;53.330;11.498;2023-04-06T01:06:13;24144.13;;;-147.39;56.16
3524;BME280;1776;53.330;11.498;2023-04-06T01:08:38;24117.72;;;-147.39;56.31
3524;BME280;1776;53.330;11.498;2023-04-06T01:11:04;24129.91;;;-147.39;56.44
3524;BME280;1776;53.330;11.498;2023-04-06T01:13:30;24111.59;;;-147.39;56.57
3524;BME280;1776;53.330;11.498;2023-04-06T01:15:55;24105.50;;;-147.39;56.47
3524;BME280;1776;53.330;11.498;2023-04-06T01:18:28;24158.38;;;-147.39;56.73
3524;BME280;1776;53.330;11.498;2023-04-06T01:20:55;24131.94;;;-147.39;56.62
3524;BME280;1776;53.330;11.498;2023-04-06T01:23:20;24133.97;;;-147.39;56.76
3524;BME280;1776;53.330;11.498;2023-04-06T01:25:46;24138.03;;;-147.39;56.53
3524;BME280;1776;53.330;11.498;2023-04-06T01:28:11;24148.22;;;-147.39;56.78
3524;BME280;1776;53.330;11.498;2023-04-06T01:30:36;24127.88;;;-147.39;56.69
3524;BME280;1776;53.330;11.498;2023-04-06T01:33:02;24131.94;;;-147.39;56.58
3524;BME280;1776;53.330;11.498;2023-04-06T01:35:28;24119.75;;;-147.39;56.93
3524;BME280;1776;53.330;11.498;2023-04-06T01:37:53;24077.03;;;-147.39;56.87
3524;BME280;1776;53.330;11.498;2023-04-06T01:40:19;24101.44;;;-147.39;56.93
3524;BME280;1776;53.330;11.498;2023-04-06T01:42:44;24111.59;;;-147.39;57.28
3524;BME280;1776;53.330;11.498;2023-04-06T01:45:09;24095.34;;;-147.39;57.22
3524;BME280;1776;53.330;11.498;2023-04-06T01:47:35;24099.41;;;-147.39;57.43
3524;BME280;1776;53.330;11.498;2023-04-06T01:50:00;24111.59;;;-147.39;57.23
3524;BME280;1776;53.330;11.498;2023-04-06T01:52:26;24077.03;;;-147.39;57.31
3524;BME280;1776;53.330;11.498;2023-04-06T01:54:51;24070.94;;;-147.39;57.21
3524;BME280;1776;53.330;11.498;2023-04-06T01:57:16;24085.19;;;-147.39;57.17
3524;BME280;1776;53.330;11.498;2023-04-06T01:59:41;24085.19;;;-147.39;57.55
3524;BME280;1776;53.330;11.498;2023-04-06T02:02:07;24087.22;;;-147.39;57.61
3524;BME280;1776;53.330;11.498;2023-04-06T02:04:32;24099.41;;;-147.39;57.93
3524;BME280;1776;53.330;11.498;2023-04-06T02:06:57;24081.09;;;-147.39;57.62
3524;BME280;1776;53.330;11.498;2023-04-06T02:09:22;24062.81;;;-147.39;57.73
3524;BME280;1776;53.330;11.498;2023-04-06T02:11:48;24042.47;;;-147.39;58.26
3524;BME280;1776;53.330;11.498;2023-04-06T02:14:13;24018.06;;;-147.39;58.13
3524;BME280;1776;53.330;11.498;2023-04-06T02:16:38;24097.38;;;-147.39;58.05
3524;BME280;1776;53.330;11.498;2023-04-06T02:19:03;24060.78;;;-147.39;58.43
3524;BME280;1776;53.330;11.498;2023-04-06T02:21:29;24034.34;;;-147.39;58.18
3524;BME280;1776;53.330;11.498;2023-04-06T02:23:54;24091.28;;;-147.39;57.97
3524;BME280;1776;53.330;11.498;2023-04-06T02:26:20;24068.91;;;-147.39;58.01
3524;BME280;1776;53.330;11.498;2023-04-06T02:28:45;24032.31;;;-147.39;58.14
3524;BME280;1776;53.330;11.498;2023-04-06T02:31:10;24024.19;;;-147.39;58.19
3524;BME280;1776;53.330;11.498;2023-04-06T02:33:36;24036.38;;;-147.39;58.04
3524;BME280;1776;53.330;11.498;2023-04-06T02:36:02;24042.47;;;-147.39;58.37
3524;BME280;1776;53.330;11.498;2023-04-06T02:38:27;24024.19;;;-147.39;58.24
3524;BME280;1776;53.330;11.498;2023-04-06T02:40:52;24005.88;;;-147.39;58.87
3524;BME280;1776;53.330;11.498;2023-04-06T02:43:18;24038.41;;;-147.39;58.61
3524;BME280;1776;53.330;11.498;2023-04-06T02:45:44;24042.47;;;-147.39;58.63
3524;BME280;1776;53.330;11.498;2023-04-06T02:48:09;24032.31;;;-147.39;58.75
3524;BME280;1776;53.330;11.498;2023-04-06T02:50:35;23981.47;;;-147.39;58.52
3524;BME280;1776;53.330;11.498;2023-04-06T02:53:00;24014.00;;;-147.39;58.75
3524;BME280;1776;53.330;11.498;2023-04-06T02:55:25;24005.88;;;-147.39;58.69
3524;BME280;1776;53.330;11.498;2023-04-06T02:57:51;24020.09;;;-147.39;59.11
3524;BME280;1776;53.330;11.498;2023-04-06T03:00:16;24042.47;;;-147.39;58.86
3524;BME280;1776;53.330;11.498;2023-04-06T03:02:41;24009.94;;;-147.39;59.00
3524;BME280;1776;53.330;11.498;2023-04-06T03:05:07;24022.16;;;-147.39;58.79
3524;BME280;1776;53.330;11.498;2023-04-06T03:07:32;24009.94;;;-147.39;59.15
3524;BME280;1776;53.330;11.498;2023-04-06T03:09:57;23991.66;;;-147.39;59.11
3524;BME280;1776;53.330;11.498;2023-04-06T03:12:23;24018.06;;;-147.39;59.44
3524;BME280;1776;53.330;11.498;2023-04-06T03:14:48;24009.94;;;-147.39;59.64
3524;BME280;1776;53.330;11.498;2023-04-06T03:17:13;23979.44;;;-147.39;59.77
3524;BME280;1776;53.330;11.498;2023-04-06T03:19:38;23950.97;;;-147.39;59.53
3524;BME280;1776;53.330;11.498;2023-04-06T03:22:04;23963.19;;;-147.39;59.81
3524;BME280;1776;53.330;11.498;2023-04-06T03:24:29;23977.41;;;-147.39;59.80
3524;BME280;1776;53.330;11.498;2023-04-06T03:26:54;23979.44;;;-147.39;59.89
3524;BME280;1776;53.330;11.498;2023-04-06T03:29:20;23971.31;;;-147.39;60.13
3524;BME280;1776;53.330;11.498;2023-04-06T03:31:45;24020.09;;;-147.39;60.17
3524;BME280;1776;53.330;11.498;2023-04-06T03:34:10;23973.34;;;-147.39;60.13
3524;BME280;1776;53.330;11.498;2023-04-06T03:36:36;23948.94;;;-147.39;60.26
3524;BME280;1776;53.330;11.498;2023-04-06T03:39:01;23985.53;;;-147.39;60.08
3524;BME280;1776;53.330;11.498;2023-04-06T03:41:26;23953.00;;;-147.39;59.70
3524;BME280;1776;53.330;11.498;2023-04-06T03:43:52;23993.69;;;-147.39;59.57
3524;BME280;1776;53.330;11.498;2023-04-06T03:46:17;24032.31;;;-147.39;59.85
3524;BME280;1776;53.330;11.498;2023-04-06T03:48:42;23967.25;;;-147.39;59.80
3524;BME280;1776;53.330;11.498;2023-04-06T03:51:08;23942.84;;;-147.39;59.53
3524;BME280;1776;53.330;11.498;2023-04-06T03:53:33;23940.81;;;-147.39;59.74
3524;BME280;1776;53.330;11.498;2023-04-06T03:55:58;23993.69;;;-147.39;59.33
3524;BME280;1776;53.330;11.498;2023-04-06T03:58:23;23957.09;;;-147.39;59.34
3524;BME280;1776;53.330;11.498;2023-04-06T04:00:49;24062.81;;;-147.39;59.46
3524;BME280;1776;53.330;11.498;2023-04-06T04:03:14;23957.09;;;-147.39;59.43
3524;BME280;1776;53.330;11.498;2023-04-06T04:05:40;24016.03;;;-147.39;60.21
3524;BME280;1776;53.330;11.498;2023-04-06T04:08:05;23936.75;;;-147.39;59.91
3524;BME280;1776;53.330;11.498;2023-04-06T04:10:30;23953.00;;;-147.39;59.97
3524;BME280;1776;53.330;11.498;2023-04-06T04:12:55;23963.19;;;-147.39;60.07
3524;BME280;1776;53.330;11.498;2023-04-06T04:15:21;23953.00;;;-147.39;60.23
3524;BME280;1776;53.330;11.498;2023-04-06T04:17:46;23967.25;;;-147.39;60.63
3524;BME280;1776;53.330;11.498;2023-04-06T04:20:14;23932.69;;;-147.39;60.72
3524;BME280;1776;53.330;11.498;2023-04-06T04:22:40;24113.63;;;-147.39;60.50
3524;BME280;1776;53.330;11.498;2023-04-06T04:25:05;23959.13;;;-147.39;60.63
3524;BME280;1776;53.330;11.498;2023-04-06T04:27:31;23955.03;;;-147.39;60.82
3524;BME280;1776;53.330;11.498;2023-04-06T04:29:56;23910.31;;;-147.39;60.84
3524;BME280;1776;53.330;11.498;2023-04-06T04:32:21;23955.03;;;-147.39;61.10
3524;BME280;1776;53.330;11.498;2023-04-06T04:34:46;23906.25;;;-147.39;60.84
3524;BME280;1776;53.330;11.498;2023-04-06T04:37:12;23918.44;;;-147.39;60.87
3524;BME280;1776;53.330;11.498;2023-04-06T04:39:37;23914.38;;;-147.39;60.72
3524;BME280;1776;53.330;11.498;2023-04-06T04:42:02;23969.28;;;-147.39;60.85
3524;BME280;1776;53.330;11.498;2023-04-06T04:44:27;23896.09;;;-147.39;61.14
3524;BME280;1776;53.330;11.498;2023-04-06T04:46:53;23908.28;;;-147.39;60.94
3524;BME280;1776;53.330;11.498;2023-04-06T04:49:18;23920.47;;;-147.39;61.39
3524;BME280;1776;53.330;11.498;2023-04-06T04:51:43;23934.72;;;-147.39;60.88
3524;BME280;1776;53.330;11.498;2023-04-06T04:54:09;23881.84;;;-147.39;61.26
3524;BME280;1776;53.330;11.498;2023-04-06T04:56:34;23908.28;;;-147.39;61.23
3524;BME280;1776;53.330;11.498;2023-04-06T04:58:59;23887.94;;;-147.39;61.08
3524;BME280;1776;53.330;11.498;2023-04-06T05:01:25;23936.75;;;-147.39;61.18
3524;BME280;1776;53.330;11.498;2023-04-06T05:03:50;23881.84;;;-147.39;61.23
3524;BME280;1776;53.330;11.498;2023-04-06T05:06:15;23928.63;;;-147.39;61.01
3524;BME280;1776;53.330;11.498;2023-04-06T05:08:41;23881.84;;;-147.39;61.24
3524;BME280;1776;53.330;11.498;2023-04-06T05:11:08;23906.25;;;-147.39;61.42
3524;BME280;1776;53.330;11.498;2023-04-06T05:13:33;23910.31;;;-147.39;61.42
3524;BME280;1776;53.330;11.498;2023-04-06T05:15:58;23867.63;;;-147.39;61.90
3524;BME280;1776;53.330;11.498;2023-04-06T05:18:25;23904.22;;;-147.39;61.34
3524;BME280;1776;53.330;11.498;2023-04-06T05:20:50;23932.69;;;-147.39;61.23
3524;BME280;1776;53.330;11.498;2023-04-06T05:23:16;23904.22;;;-147.39;61.21
3524;BME280;1776;53.330;11.498;2023-04-06T05:25:42;23914.38;;;-147.39;61.09
3524;BME280;1776;53.330;11.498;2023-04-06T05:28:07;23914.38;;;-147.39;61.28
3524;BME280;1776;53.330;11.498;2023-04-06T05:30:32;23924.56;;;-147.39;61.06
3524;BME280;1776;53.330;11.498;2023-04-06T05:32:58;23912.34;;;-147.39;60.82
3524;BME280;1776;53.330;11.498;2023-04-06T05:35:23;23879.81;;;-147.39;60.69
3524;BME280;1776;53.330;11.498;2023-04-06T05:37:48;23916.41;;;-147.39;60.66
3524;BME280;1776;53.330;11.498;2023-04-06T05:40:14;23948.94;;;-147.39;60.72
3524;BME280;1776;53.330;11.498;2023-04-06T05:42:41;23932.69;;;-147.39;60.40
3524;BME280;1776;53.330;11.498;2023-04-06T05:45:08;23944.88;;;-147.39;59.81
3524;BME280;1776;53.330;11.498;2023-04-06T05:47:34;23942.84;;;-147.39;59.82
3524;BME280;1776;53.330;11.498;2023-04-06T05:49:59;23953.00;;;-147.39;59.19
3524;BME280;1776;53.330;11.498;2023-04-06T05:52:25;23938.78;;;-147.39;58.82
3524;BME280;1776;53.330;11.498;2023-04-06T05:54:50;23936.75;;;-147.39;58.49
3524;BME280;1776;53.330;11.498;2023-04-06T05:57:15;23973.34;;;-147.39;57.91
3524;BME280;1776;53.330;11.498;2023-04-06T05:59:42;23948.94;;;-147.39;57.86
3524;BME280;1776;53.330;11.498;2023-04-06T06:02:07;23953.00;;;-147.39;57.80
3524;BME280;1776;53.330;11.498;2023-04-06T06:04:32;23997.75;;;-147.39;57.15
3524;BME280;1776;53.330;11.498;2023-04-06T06:06:57;23979.44;;;-147.39;56.20
3524;BME280;1776;53.330;11.498;2023-04-06T06:09:23;23999.78;;;-147.39;55.84
3524;BME280;1776;53.330;11.498;2023-04-06T06:11:48;24018.06;;;-147.39;56.37
3524;BME280;1776;53.330;11.498;2023-04-06T06:14:14;24052.63;;;-147.39;56.18
3524;BME280;1776;53.330;11.498;2023-04-06T06:16:40;24009.94;;;-147.39;55.67
3524;BME280;1776;53.330;11.498;2023-04-06T06:19:05;24036.38;;;-147.39;55.43
3524;BME280;1776;53.330;11.498;2023-04-06T06:21:30;24044.50;;;-147.39;55.25
3524;BME280;1776;53.330;11.498;2023-04-06T06:23:56;24036.38;;;-147.39;54.90
3524;BME280;1776;53.330;11.498;2023-04-06T06:26:21;24085.19;;;-147.39;54.78
3524;BME280;1776;53.330;11.498;2023-04-06T06:28:47;24081.09;;;-147.39;54.51
3524;BME280;1776;53.330;11.498;2023-04-06T06:31:12;24046.53;;;-147.39;54.11
3524;BME280;1776;53.330;11.498;2023-04-06T06:33:37;24089.25;;;-147.39;53.75
3524;BME280;1776;53.330;11.498;2023-04-06T06:36:03;24115.66;;;-147.39;53.98
3524;BME280;1776;53.330;11.498;2023-04-06T06:38:28;24068.91;;;-147.39;53.91
3524;BME280;1776;53.330;11.498;2023-04-06T06:40:53;24058.75;;;-147.39;54.85
3524;BME280;1776;53.330;11.498;2023-04-06T06:43:19;24077.03;;;-147.39;55.61
3524;BME280;1776;53.330;11.498;2023-04-06T06:45:44;24038.41;;;-147.39;55.86
3524;BME280;1776;53.330;11.498;2023-04-06T06:48:09;24028.25;;;-147.39;56.74
3524;BME280;1776;53.330;11.498;2023-04-06T06:50:35;24032.31;;;-147.39;56.07
3524;BME280;1776;53.330;11.498;2023-04-06T06:53:00;24075.00;;;-147.39;55.47
3524;BME280;1776;53.330;11.498;2023-04-06T06:55:25;24072.97;;;-147.39;55.48
3524;BME280;1776;53.330;11.498;2023-04-06T06:57:52;24083.13;;;-147.39;55.37
3524;BME280;1776;53.330;11.498;2023-04-06T07:00:17;24083.13;;;-147.39;55.21
3524;BME280;1776;53.330;11.498;2023-04-06T07:02:43;24109.56;;;-147.39;54.49
3524;BME280;1776;53.330;11.498;2023-04-06T07:05:08;24083.13;;;-147.39;54.51
3524;BME280;1776;53.330;11.498;2023-04-06T07:07:34;24125.84;;;-147.39;54.00
3524;BME280;1776;53.330;11.498;2023-04-06T07:10:00;24115.66;;;-147.39;54.37
3524;BME280;1776;53.330;11.498;2023-04-06T07:12:25;24178.72;;;-147.39;53.70
3524;BME280;1776;53.330;11.498;2023-04-06T07:14:51;24140.06;;;-147.39;53.49
3524;BME280;1776;53.330;11.498;2023-04-06T07:17:16;24180.75;;;-147.39;53.16
3524;BME280;1776;53.330;11.498;2023-04-06T07:19:41;24194.97;;;-147.39;52.35
3524;BME280;1776;53.330;11.498;2023-04-06T07:22:07;24166.50;;;-147.39;51.90
3524;BME280;1776;53.330;11.498;2023-04-06T07:24:32;24182.78;;;-147.39;52.31
3524;BME280;1776;53.330;11.498;2023-04-06T07:26:58;24207.16;;;-147.39;51.84
3524;BME280;1776;53.330;11.498;2023-04-06T07:29:25;24251.91;;;-147.39;51.62
3524;BME280;1776;53.330;11.498;2023-04-06T07:31:51;24274.28;;;-147.39;51.32
3524;BME280;1776;53.330;11.498;2023-04-06T07:34:16;24237.66;;;-147.39;50.96
3524;BME280;1776;53.330;11.498;2023-04-06T07:36:41;24304.78;;;-147.39;50.41
3524;BME280;1776;53.330;11.498;2023-04-06T07:39:07;24310.88;;;-147.39;49.07
3524;BME280;1776;53.330;11.498;2023-04-06T07:41:32;24308.84;;;-147.39;48.06
3524;BME280;1776;53.330;11.498;2023-04-06T07:43:57;24339.34;;;-147.39;47.78
3524;BME280;1776;53.330;11.498;2023-04-06T07:46:22;24369.84;;;-147.39;48.09
3524;BME280;1776;53.330;11.498;2023-04-06T07:48:48;24382.03;;;-147.39;48.01
3524;BME280;1776;53.330;11.498;2023-04-06T07:51:14;24412.53;;;-147.39;47.28
3524;BME280;1776;53.330;11.498;2023-04-06T07:53:40;24414.56;;;-147.39;47.44
3524;BME280;1776;53.330;11.498;2023-04-06T07:56:05;24424.75;;;-147.39;46.85
3524;BME280;1776;53.330;11.498;2023-04-06T07:58:30;24408.47;;;-147.39;46.86
3524;BME280;1776;53.330;11.498;2023-04-06T08:00:56;24445.06;;;-147.39;47.05
3524;BME280;1776;53.330;11.498;2023-04-06T08:03:23;24467.44;;;-147.39;46.58
3524;BME280;1776;53.330;11.498;2023-04-06T08:05:51;24473.53;;;-147.39;45.63
3524;BME280;1776;53.330;11.498;2023-04-06T08:08:16;24534.56;;;-147.39;45.20
3524;BME280;1776;53.330;11.498;2023-04-06T08:10:41;24518.28;;;-147.39;45.31
3524;BME280;1776;53.330;11.498;2023-04-06T08:13:07;24554.88;;;-147.39;45.34
3524;BME280;1776;53.330;11.498;2023-04-06T08:15:33;24552.84;;;-147.39;44.72
3524;BME280;1776;53.330;11.498;2023-04-06T08:17:58;24532.50;;;-147.39;44.19
3524;BME280;1776;53.330;11.498;2023-04-06T08:20:23;24581.31;;;-147.39;44.12
3524;BME280;1776;53.330;11.498;2023-04-06T08:22:49;24591.50;;;-147.39;43.45
3524;BME280;1776;53.330;11.498;2023-04-06T08:25:14;24601.66;;;-147.39;43.27
3524;BME280;1776;53.330;11.498;2023-04-06T08:27:39;24632.16;;;-147.39;41.16
3524;BME280;1776;53.330;11.498;2023-04-06T08:30:05;24678.94;;;-147.39;41.57
3524;BME280;1776;53.330;11.498;2023-04-06T08:32:30;24721.63;;;-147.39;41.52
3524;BME280;1776;53.330;11.498;2023-04-06T08:34:56;24707.41;;;-147.39;40.29
3524;BME280;1776;53.330;11.498;2023-04-06T08:37:22;24774.50;;;-147.39;40.10
3524;BME280;1776;53.330;11.498;2023-04-06T08:39:47;24805.00;;;-147.39;40.11
3524;BME280;1776;53.330;11.498;2023-04-06T08:42:21;24835.53;;;-147.39;39.17
3524;BME280;1776;53.330;11.498;2023-04-06T08:44:48;24855.84;;;-147.39;39.10
3524;BME280;1776;53.330;11.498;2023-04-06T08:47:16;24892.47;;;-147.39;39.79
3524;BME280;1776;53.330;11.498;2023-04-06T08:49:41;24983.97;;;-147.39;38.47
3524;BME280;1776;53.330;11.498;2023-04-06T08:52:07;24922.97;;;-147.39;37.58
3524;BME280;1776;53.330;11.498;2023-04-06T08:54:36;25032.78;;;-147.39;37.19
3524;BME280;1776;53.330;11.498;2023-04-06T08:57:02;25020.59;;;-147.39;35.81
3524;BME280;1776;53.330;11.498;2023-04-06T08:59:28;25028.72;;;-147.39;36.64
3524;BME280;1776;53.330;11.498;2023-04-06T09:01:54;25036.84;;;-147.39;36.50
3524;BME280;1776;53.330;11.498;2023-04-06T09:04:20;25059.22;;;-147.39;36.41
3524;BME280;1776;53.330;11.498;2023-04-06T09:06:45;25136.50;;;-147.39;36.29
3524;BME280;1776;53.330;11.498;2023-04-06T09:09:11;25069.41;;;-147.39;36.58
3524;BME280;1776;53.330;11.498;2023-04-06T09:11:50;25118.22;;;-147.39;35.92
3524;BME280;1776;53.330;11.498;2023-04-06T09:14:16;25156.84;;;-147.39;35.49
3524;BME280;1776;53.330;11.498;2023-04-06T09:16:43;25160.91;;;-147.39;35.38
3524;BME280;1776;53.330;11.498;2023-04-06T09:19:10;25154.81;;;-147.39;35.55
3524;BME280;1776;53.330;11.498;2023-04-06T09:21:36;25158.88;;;-147.39;35.48
3524;BME280;1776;53.330;11.498;2023-04-06T09:24:02;25207.69;;;-147.39;35.21
3524;BME280;1776;53.330;11.498;2023-04-06T09:26:28;25232.09;;;-147.39;35.32
3524;BME280;1776;53.330;11.498;2023-04-06T09:28:55;25282.94;;;-147.39;35.01
3524;BME280;1776;53.330;11.498;2023-04-06T09:31:24;25321.59;;;-147.39;35.25
3524;BME280;1776;53.330;11.498;2023-04-06T09:33:50;25319.56;;;-147.39;33.08
3524;BME280;1776;53.330;11.498;2023-04-06T09:36:17;25305.31;;;-147.39;34.14
3524;BME280;1776;53.330;11.498;2023-04-06T09:41:26;25339.91;;;-147.39;35.20
3524;BME280;1776;53.330;11.498;2023-04-06T09:43:52;25398.88;;;-147.39;34.74
3524;BME280;1776;53.330;11.498;2023-04-06T09:46:26;25374.47;;;-147.39;34.81
3524;BME280;1776;53.330;11.498;2023-04-06T09:48:52;25400.91;;;-147.39;35.33
3524;BME280;1776;53.330;11.498;2023-04-06T09:51:18;25433.47;;;-147.39;34.23
3524;BME280;1776;53.330;11.498;2023-04-06T09:53:50;25360.25;;;-147.39;32.22
3524;BME280;1776;53.330;11.498;2023-04-06T09:56:20;25343.97;;;-147.39;33.20
3524;BME280;1776;53.330;11.498;2023-04-06T09:58:49;25366.34;;;-147.39;34.62
3524;BME280;1776;53.330;11.498;2023-04-06T10:01:19;25449.72;;;-147.39;33.88
3524;BME280;1776;53.330;11.498;2023-04-06T10:03:59;25423.28;;;-147.39;33.57
3524;BME280;1776;53.330;11.498;2023-04-06T10:06:31;25459.91;;;-147.39;34.29
3524;BME280;1776;53.330;11.498;2023-04-06T10:08:59;25496.50;;;-147.39;33.68
3524;BME280;1776;53.330;11.498;2023-04-06T10:11:26;25413.13;;;-147.39;32.00
3524;BME280;1776;53.330;11.498;2023-04-06T10:13:53;25449.72;;;-147.39;33.98
3524;BME280;1776;53.330;11.498;2023-04-06T10:16:21;25478.22;;;-147.39;34.20
3524;BME280;1776;53.330;11.498;2023-04-06T10:18:52;25476.16;;;-147.39;33.30
3524;BME280;1776;53.330;11.498;2023-04-06T10:21:21;25571.78;;;-147.39;32.17
3524;BME280;1776;53.330;11.498;2023-04-06T10:23:51;25512.78;;;-147.39;32.80
3524;BME280;1776;53.330;11.498;2023-04-06T10:26:19;25472.09;;;-147.39;33.97
3524;BME280;1776;53.330;11.498;2023-04-06T10:28:46;25494.47;;;-147.39;32.55
3524;BME280;1776;53.330;11.498;2023-04-06T10:31:11;25549.41;;;-147.39;32.08
3524;BME280;1776;53.330;11.498;2023-04-06T10:33:37;25488.38;;;-147.39;33.36
3524;BME280;1776;53.330;11.498;2023-04-06T10:36:20;25549.41;;;-147.39;32.68
3524;BME280;1776;53.330;11.498;2023-04-06T10:38:46;25508.72;;;-147.39;32.09
3524;BME280;1776;53.330;11.498;2023-04-06T10:41:11;25565.66;;;-147.39;32.64
3524;BME280;1776;53.330;11.498;2023-04-06T10:43:39;25579.91;;;-147.39;33.06
3524;BME280;1776;53.330;11.498;2023-04-06T10:46:06;25634.81;;;-147.39;32.62
3524;BME280;1776;53.330;11.498;2023-04-06T10:48:41;25594.16;;;-147.39;32.10
3524;BME280;1776;53.330;11.498;2023-04-06T10:51:16;25579.91;;;-147.39;32.44
3524;BME280;1776;53.330;11.498;2023-04-06T10:53:44;25636.88;;;-147.39;32.55
3524;BME280;1776;53.330;11.498;2023-04-06T10:56:12;25583.97;;;-147.39;31.66
3524;BME280;1776;53.330;11.498;2023-04-06T10:58:38;25608.38;;;-147.39;32.50
3524;BME280;1776;53.330;11.498;2023-04-06T11:01:03;25752.81;;;-147.39;31.65
3524;BME280;1776;53.330;11.498;2023-04-06T11:03:28;25691.78;;;-147.39;32.70
3524;BME280;1776;53.330;11.498;2023-04-06T11:05:54;25642.97;;;-147.39;32.04
3524;BME280;1776;53.330;11.498;2023-04-06T11:08:25;25642.97;;;-147.39;31.39
3524;BME280;1776;53.330;11.498;2023-04-06T11:10:50;25612.44;;;-147.39;32.92
3524;BME280;1776;53.330;11.498;2023-04-06T11:13:16;25559.56;;;-147.39;32.43
3524;BME280;1776;53.330;11.498;2023-04-06T11:15:41;25610.41;;;-147.39;32.22
3524;BME280;1776;53.330;11.498;2023-04-06T11:18:06;25669.41;;;-147.39;32.42
3524;BME280;1776;53.330;11.498;2023-04-06T11:20:31;25667.38;;;-147.39;32.29
3524;BME280;1776;53.330;11.498;2023-04-06T11:22:57;25695.84;;;-147.39;32.77
3524;BME280;1776;53.330;11.498;2023-04-06T11:25:24;25762.97;;;-147.39;32.18
3524;BME280;1776;53.330;11.498;2023-04-06T11:27:51;25785.34;;;-147.39;31.79
3524;BME280;1776;53.330;11.498;2023-04-06T11:30:17;25815.88;;;-147.39;30.10
3524;BME280;1776;53.330;11.498;2023-04-06T11:32:43;25791.44;;;-147.39;31.11
3524;BME280;1776;53.330;11.498;2023-04-06T11:35:22;25852.47;;;-147.39;31.07
3524;BME280;1776;53.330;11.498;2023-04-06T11:37:51;25762.97;;;-147.39;31.19
3524;BME280;1776;53.330;11.498;2023-04-06T11:40:21;25803.66;;;-147.39;31.67
3524;BME280;1776;53.330;11.498;2023-04-06T11:42:55;25781.28;;;-147.39;31.48
3524;BME280;1776;53.330;11.498;2023-04-06T11:45:20;25777.22;;;-147.39;30.45
3524;BME280;1776;53.330;11.498;2023-04-06T11:47:55;25767.03;;;-147.39;30.03
3524;BME280;1776;53.330;11.498;2023-04-06T11:50:20;25744.66;;;-147.39;30.37
3524;BME280;1776;53.330;11.498;2023-04-06T11:52:46;25748.75;;;-147.39;30.53
3524;BME280;1776;53.330;11.498;2023-04-06T11:55:22;25840.28;;;-147.39;30.90
3524;BME280;1776;53.330;11.498;2023-04-06T11:57:47;25874.84;;;-147.39;30.60
3524;BME280;1776;53.330;11.498;2023-04-06T12:00:14;25927.75;;;-147.39;30.99
3524;BME280;1776;53.330;11.498;2023-04-06T12:02:40;25958.25;;;-147.39;30.70
3524;BME280;1776;53.330;11.498;2023-04-06T12:05:10;25913.50;;;-147.39;29.69
3524;BME280;1776;53.330;11.498;2023-04-06T12:07:35;25870.78;;;-147.39;30.32
3524;BME280;1776;53.330;11.498;2023-04-06T12:10:01;25874.84;;;-147.39;30.30
3524;BME280;1776;53.330;11.498;2023-04-06T12:12:27;25903.34;;;-147.39;30.54
3524;BME280;1776;53.330;11.498;2023-04-06T12:14:53;25907.41;;;-147.39;30.92
3524;BME280;1776;53.330;11.498;2023-04-06T12:17:20;25956.22;;;-147.39;30.93
3524;BME280;1776;53.330;11.498;2023-04-06T12:19:45;25954.19;;;-147.39;29.49
3524;BME280;1776;53.330;11.498;2023-04-06T12:22:11;25921.63;;;-147.39;29.41
3524;BME280;1776;53.330;11.498;2023-04-06T12:24:36;25826.03;;;-147.39;29.58
3524;BME280;1776;53.330;11.498;2023-04-06T12:27:01;25838.25;;;-147.39;30.56
3524;BME280;1776;53.330;11.498;2023-04-06T12:29:27;25803.66;;;-147.39;30.39
3524;BME280;1776;53.330;11.498;2023-04-06T12:31:52;25805.69;;;-147.39;30.39
3524;BME280;1776;53.330;11.498;2023-04-06T12:34:18;25821.97;;;-147.39;29.56
3524;BME280;1776;53.330;11.498;2023-04-06T12:36:43;25740.59;;;-147.39;30.32
3524;BME280;1776;53.330;11.498;2023-04-06T12:39:08;25805.69;;;-147.39;30.91
3524;BME280;1776;53.330;11.498;2023-04-06T12:41:34;25789.41;;;-147.39;30.98
3524;BME280;1776;53.330;11.498;2023-04-06T12:44:00;25907.41;;;-147.39;31.36
3524;BME280;1776;53.330;11.498;2023-04-06T12:46:25;25876.88;;;-147.39;31.67